METAR AND TAF INFORMATION
METAR FOR WADD
ADDS - METARS form results

(0719 UTC 23 April 2018)
Data provider http://aviationweather.gov/adds/metars/
 
Forecast for: WADD (BALI INTL , ID)
Text: TAF WADD 230500Z 2306/2406 10010KT 9999 SCT017
Forecast period: 0600 UTC 23 April 2018 to 0600 UTC 24 April 2018
Forecast type: FROM: standard forecast or significant change
Winds: from the E (100 degrees) at 12 MPH (10 knots; 5.2 m/s)
Visibility: 6 or more miles (10+ km)
Clouds: scattered clouds at 1700 feet AGL
Weather: no significant weather forecast for this period
Forecast for: WADD (BALI INTL , ID)
Text: TAF WADD 230500Z 2306/2406 10010KT 9999 SCT017
Forecast period: 0600 UTC 23 April 2018 to 0600 UTC 24 April 2018
Forecast type: FROM: standard forecast or significant change
Winds: from the E (100 degrees) at 12 MPH (10 knots; 5.2 m/s)
Visibility: 6 or more miles (10+ km)
Clouds: scattered clouds at 1700 feet AGL
Weather: no significant weather forecast for this period
Forecast for: WADD (BALI INTL , ID)
Text: TAF WADD 230500Z 2306/2406 10010KT 9999 SCT017
Forecast period: 0600 to 1000 UTC 23 April 2018
Forecast type: TEMPORARY: The following changes expected for less than half the time period
Clouds: few clouds at 1500 feet AGL
scattered clouds at 1600 feet AGL
Weather: no significant weather forecast for this period
Forecast for: WADD (BALI INTL , ID)
Text: TAF WADD 230500Z 2306/2406 10010KT 9999 SCT017
Forecast period: 0600 to 1000 UTC 23 April 2018
Forecast type: TEMPORARY: The following changes expected for less than half the time period
Clouds: few clouds at 1500 feet AGL
scattered clouds at 1600 feet AGL
Weather: no significant weather forecast for this period

 AIRPORT MAP

 RUNWAY INFORMATION
Runway 09 Runway length 9790 ft Runway width 148 ft
Runway elevation 11 ft Runway displaced threshold 0 ft Runway heading 88
Runway 27 Runway length 9790 ft Runway width 148 ft
Runway elevation 12 ft Runway displaced threshold 0 ft Runway heading 268

 AIRPORT FREQUENCIES
Type APP Name DIRECTOR Frequency 119.7 MHZ
Type ATIS Name ATIS Frequency 126.2 MHZ
Type GND Name NGURAH GND Frequency 118.8 MHZ
Type INFO Name INFO Frequency 8.88 MHZ
Type TMA Name RADAR Frequency 119.3 MHZ
Type TWR Name NGURAH TWR Frequency 118.1 MHZ

 AIRPORT NEAR NAVIGATION AIDS
Type VOR-DME Name Bali Frequency 116200 KHZ
Type NDB Name Bali Frequency 230 KHZ



Powered by Virtual Airlines Manager [v2.6.2]